sensor_id;sensor_type;location;lat;lon;timestamp;pressure;altitude;pressure_sealevel;temperature;humidity
54736;BME280;40632;51.442;11.936;2022-07-22T00:01:30;100701.78;;;23.84;72.65
54736;BME280;40632;51.442;11.936;2022-07-22T00:03:57;100690.47;;;23.74;73.02
54736;BME280;40632;51.442;11.936;2022-07-22T00:06:23;100689.47;;;23.90;72.20
54736;BME280;40632;51.442;11.936;2022-07-22T00:08:48;100695.41;;;23.47;73.84
54736;BME280;40632;51.442;11.936;2022-07-22T00:11:16;100703.19;;;23.57;73.87
54736;BME280;40632;51.442;11.936;2022-07-22T00:13:42;100700.38;;;23.35;74.97
54736;BME280;40632;51.442;11.936;2022-07-22T00:16:08;100705.06;;;23.33;75.05
54736;BME280;40632;51.442;11.936;2022-07-22T00:18:33;100701.63;;;23.25;75.59
54736;BME280;40632;51.442;11.936;2022-07-22T00:20:59;100698.84;;;23.18;75.69
54736;BME280;40632;51.442;11.936;2022-07-22T00:23:24;100709.13;;;23.29;75.29
54736;BME280;40632;51.442;11.936;2022-07-22T00:25:50;100707.19;;;23.61;74.56
54736;BME280;40632;51.442;11.936;2022-07-22T00:28:18;100697.81;;;23.19;75.58
54736;BME280;40632;51.442;11.936;2022-07-22T00:30:44;100701.41;;;22.80;77.99
54736;BME280;40632;51.442;11.936;2022-07-22T00:33:09;100702.38;;;22.87;78.18
54736;BME280;40632;51.442;11.936;2022-07-22T00:35:35;100703.22;;;22.88;78.19
54736;BME280;40632;51.442;11.936;2022-07-22T00:38:01;100704.75;;;22.82;79.10
54736;BME280;40632;51.442;11.936;2022-07-22T00:40:26;100703.03;;;22.89;78.30
54736;BME280;40632;51.442;11.936;2022-07-22T00:42:52;100691.75;;;23.02;77.78
54736;BME280;40632;51.442;11.936;2022-07-22T00:45:20;100693.25;;;23.05;77.42
54736;BME280;40632;51.442;11.936;2022-07-22T00:47:46;100696.75;;;23.05;77.39
54736;BME280;40632;51.442;11.936;2022-07-22T00:50:11;100683.72;;;23.25;76.10
54736;BME280;40632;51.442;11.936;2022-07-22T00:52:37;100687.34;;;23.32;75.53
54736;BME280;40632;51.442;11.936;2022-07-22T00:55:05;100686.91;;;23.06;76.96
54736;BME280;40632;51.442;11.936;2022-07-22T00:57:30;100686.47;;;23.17;76.51
54736;BME280;40632;51.442;11.936;2022-07-22T00:59:56;100689.28;;;22.92;78.21
54736;BME280;40632;51.442;11.936;2022-07-22T01:02:25;100689.53;;;22.82;78.74
54736;BME280;40632;51.442;11.936;2022-07-22T01:04:50;100684.59;;;22.94;78.34
54736;BME280;40632;51.442;11.936;2022-07-22T01:07:16;100686.50;;;23.09;77.67
54736;BME280;40632;51.442;11.936;2022-07-22T01:09:42;100688.88;;;23.27;76.43
54736;BME280;40632;51.442;11.936;2022-07-22T01:12:08;100687.09;;;23.19;76.48
54736;BME280;40632;51.442;11.936;2022-07-22T01:14:33;100683.53;;;23.27;76.48
54736;BME280;40632;51.442;11.936;2022-07-22T01:16:59;100681.47;;;23.14;77.58
54736;BME280;40632;51.442;11.936;2022-07-22T01:19:27;100692.75;;;23.01;78.21
54736;BME280;40632;51.442;11.936;2022-07-22T01:21:55;100688.59;;;22.98;79.02
54736;BME280;40632;51.442;11.936;2022-07-22T01:24:21;100676.81;;;22.84;79.14
54736;BME280;40632;51.442;11.936;2022-07-22T01:26:47;100689.09;;;22.71;80.46
54736;BME280;40632;51.442;11.936;2022-07-22T01:29:12;100692.25;;;22.74;80.56
54736;BME280;40632;51.442;11.936;2022-07-22T01:31:38;100683.97;;;22.61;81.16
54736;BME280;40632;51.442;11.936;2022-07-22T01:34:04;100687.78;;;22.67;80.99
54736;BME280;40632;51.442;11.936;2022-07-22T01:36:29;100676.31;;;22.81;79.52
54736;BME280;40632;51.442;11.936;2022-07-22T01:38:57;100686.06;;;22.74;80.67
54736;BME280;40632;51.442;11.936;2022-07-22T01:41:23;100687.25;;;22.94;79.65
54736;BME280;40632;51.442;11.936;2022-07-22T01:43:49;100690.31;;;22.91;79.62
54736;BME280;40632;51.442;11.936;2022-07-22T01:46:14;100690.34;;;22.60;81.67
54736;BME280;40632;51.442;11.936;2022-07-22T01:48:40;100694.25;;;22.80;80.38
54736;BME280;40632;51.442;11.936;2022-07-22T01:51:06;100683.69;;;22.56;82.40
54736;BME280;40632;51.442;11.936;2022-07-22T01:53:32;100683.53;;;22.49;83.11
54736;BME280;40632;51.442;11.936;2022-07-22T01:56:00;100693.16;;;22.67;82.37
54736;BME280;40632;51.442;11.936;2022-07-22T01:58:26;100687.38;;;23.09;79.67
54736;BME280;40632;51.442;11.936;2022-07-22T02:00:51;100682.38;;;23.06;79.44
54736;BME280;40632;51.442;11.936;2022-07-22T02:03:17;100690.28;;;23.37;77.65
54736;BME280;40632;51.442;11.936;2022-07-22T02:05:43;100683.81;;;23.32;77.29
54736;BME280;40632;51.442;11.936;2022-07-22T02:08:10;100677.34;;;23.26;78.46
54736;BME280;40632;51.442;11.936;2022-07-22T02:10:35;100676.41;;;23.34;77.67
54736;BME280;40632;51.442;11.936;2022-07-22T02:13:04;100684.75;;;23.39;77.14
54736;BME280;40632;51.442;11.936;2022-07-22T02:15:30;100689.00;;;23.33;77.34
54736;BME280;40632;51.442;11.936;2022-07-22T02:17:56;100683.34;;;23.28;77.50
54736;BME280;40632;51.442;11.936;2022-07-22T02:20:22;100681.56;;;22.97;79.98
54736;BME280;40632;51.442;11.936;2022-07-22T02:22:47;100682.53;;;23.05;79.50
54736;BME280;40632;51.442;11.936;2022-07-22T02:25:13;100684.69;;;23.09;79.12
54736;BME280;40632;51.442;11.936;2022-07-22T02:27:40;100683.50;;;22.57;81.90
54736;BME280;40632;51.442;11.936;2022-07-22T02:30:10;100675.69;;;23.02;80.61
54736;BME280;40632;51.442;11.936;2022-07-22T02:32:35;100682.16;;;22.84;80.35
54736;BME280;40632;51.442;11.936;2022-07-22T02:35:01;100688.13;;;22.95;79.97
54736;BME280;40632;51.442;11.936;2022-07-22T02:37:27;100695.38;;;22.86;79.69
54736;BME280;40632;51.442;11.936;2022-07-22T02:39:52;100696.03;;;22.57;81.92
54736;BME280;40632;51.442;11.936;2022-07-22T02:42:18;100704.28;;;23.01;79.81
54736;BME280;40632;51.442;11.936;2022-07-22T02:44:43;100700.81;;;22.93;79.31
54736;BME280;40632;51.442;11.936;2022-07-22T02:47:12;100705.50;;;22.68;81.03
54736;BME280;40632;51.442;11.936;2022-07-22T02:49:37;100705.13;;;23.02;79.01
54736;BME280;40632;51.442;11.936;2022-07-22T02:52:03;100704.22;;;23.18;77.73
54736;BME280;40632;51.442;11.936;2022-07-22T02:54:29;100703.19;;;23.19;77.58
54736;BME280;40632;51.442;11.936;2022-07-22T02:59:20;100709.63;;;23.48;75.71
54736;BME280;40632;51.442;11.936;2022-07-22T03:01:45;100709.91;;;23.38;76.10
54736;BME280;40632;51.442;11.936;2022-07-22T03:04:13;100716.34;;;23.06;78.22
54736;BME280;40632;51.442;11.936;2022-07-22T03:06:39;100714.41;;;23.37;76.31
54736;BME280;40632;51.442;11.936;2022-07-22T03:09:04;100718.91;;;23.60;75.11
54736;BME280;40632;51.442;11.936;2022-07-22T03:11:30;100718.56;;;23.63;74.40
54736;BME280;40632;51.442;11.936;2022-07-22T03:13:56;100720.13;;;23.72;74.18
54736;BME280;40632;51.442;11.936;2022-07-22T03:16:21;100719.38;;;23.78;73.83
54736;BME280;40632;51.442;11.936;2022-07-22T03:18:47;100724.81;;;23.55;75.20
54736;BME280;40632;51.442;11.936;2022-07-22T03:21:15;100712.44;;;23.69;74.30
54736;BME280;40632;51.442;11.936;2022-07-22T03:23:40;100715.97;;;23.70;73.83
54736;BME280;40632;51.442;11.936;2022-07-22T03:26:06;100717.19;;;23.82;73.85
54736;BME280;40632;51.442;11.936;2022-07-22T03:28:32;100717.59;;;23.94;73.27
54736;BME280;40632;51.442;11.936;2022-07-22T03:30:57;100724.66;;;23.72;74.59
54736;BME280;40632;51.442;11.936;2022-07-22T03:33:23;100721.56;;;23.98;73.26
54736;BME280;40632;51.442;11.936;2022-07-22T03:35:49;100725.72;;;23.48;74.48
54736;BME280;40632;51.442;11.936;2022-07-22T03:38:17;100716.91;;;23.77;74.42
54736;BME280;40632;51.442;11.936;2022-07-22T03:40:42;100728.00;;;23.74;73.41
54736;BME280;40632;51.442;11.936;2022-07-22T03:43:08;100727.34;;;23.72;73.44
54736;BME280;40632;51.442;11.936;2022-07-22T03:45:34;100702.75;;;23.68;73.40
54736;BME280;40632;51.442;11.936;2022-07-22T03:47:59;100721.28;;;23.93;72.45
54736;BME280;40632;51.442;11.936;2022-07-22T03:50:25;100721.19;;;24.16;71.08
54736;BME280;40632;51.442;11.936;2022-07-22T03:52:51;100725.34;;;23.89;72.15
54736;BME280;40632;51.442;11.936;2022-07-22T03:55:19;100722.41;;;23.98;72.55
54736;BME280;40632;51.442;11.936;2022-07-22T03:57:45;100724.72;;;24.16;71.73
54736;BME280;40632;51.442;11.936;2022-07-22T04:00:11;100723.25;;;24.29;71.31
54736;BME280;40632;51.442;11.936;2022-07-22T04:02:37;100721.31;;;24.74;69.86
54736;BME280;40632;51.442;11.936;2022-07-22T04:05:03;100722.94;;;24.90;69.36
54736;BME280;40632;51.442;11.936;2022-07-22T04:07:28;100716.94;;;25.09;68.74
54736;BME280;40632;51.442;11.936;2022-07-22T04:09:54;100715.25;;;25.08;68.19
54736;BME280;40632;51.442;11.936;2022-07-22T04:12:22;100718.59;;;25.10;68.07
54736;BME280;40632;51.442;11.936;2022-07-22T04:14:48;100714.22;;;25.24;68.08
54736;BME280;40632;51.442;11.936;2022-07-22T04:17:13;100710.09;;;25.07;68.23
54736;BME280;40632;51.442;11.936;2022-07-22T04:19:39;100719.94;;;25.21;67.72
54736;BME280;40632;51.442;11.936;2022-07-22T04:22:04;100711.69;;;25.44;66.74
54736;BME280;40632;51.442;11.936;2022-07-22T04:24:30;100709.00;;;25.44;66.09
54736;BME280;40632;51.442;11.936;2022-07-22T04:26:56;100710.84;;;25.44;66.46
54736;BME280;40632;51.442;11.936;2022-07-22T04:29:24;100707.97;;;25.45;66.63
54736;BME280;40632;51.442;11.936;2022-07-22T04:31:50;100710.22;;;25.42;66.97
54736;BME280;40632;51.442;11.936;2022-07-22T04:34:15;100709.75;;;25.60;65.95
54736;BME280;40632;51.442;11.936;2022-07-22T04:36:41;100702.44;;;25.82;65.34
54736;BME280;40632;51.442;11.936;2022-07-22T04:39:06;100710.84;;;26.00;64.78
54736;BME280;40632;51.442;11.936;2022-07-22T04:41:32;100711.16;;;25.12;67.33
54736;BME280;40632;51.442;11.936;2022-07-22T04:43:57;100713.59;;;25.07;67.80
54736;BME280;40632;51.442;11.936;2022-07-22T04:46:26;100714.47;;;24.93;69.16
54736;BME280;40632;51.442;11.936;2022-07-22T04:48:51;100711.31;;;24.83;69.30
54736;BME280;40632;51.442;11.936;2022-07-22T04:51:17;100717.69;;;25.03;68.94
54736;BME280;40632;51.442;11.936;2022-07-22T04:53:42;100712.66;;;25.15;68.93
54736;BME280;40632;51.442;11.936;2022-07-22T04:56:08;100703.78;;;25.36;68.29
54736;BME280;40632;51.442;11.936;2022-07-22T04:58:34;100712.69;;;24.79;69.31
54736;BME280;40632;51.442;11.936;2022-07-22T05:00:59;100704.75;;;24.70;68.78
54736;BME280;40632;51.442;11.936;2022-07-22T05:03:27;100711.44;;;24.96;68.54
54736;BME280;40632;51.442;11.936;2022-07-22T05:05:53;100712.00;;;24.91;68.46
54736;BME280;40632;51.442;11.936;2022-07-22T05:08:19;100710.34;;;25.34;66.83
54736;BME280;40632;51.442;11.936;2022-07-22T05:10:44;100706.00;;;25.61;65.59
54736;BME280;40632;51.442;11.936;2022-07-22T05:13:12;100701.66;;;25.60;64.89
54736;BME280;40632;51.442;11.936;2022-07-22T05:15:38;100709.28;;;25.28;65.63
54736;BME280;40632;51.442;11.936;2022-07-22T05:18:04;100716.34;;;24.92;67.79
54736;BME280;40632;51.442;11.936;2022-07-22T05:20:32;100711.75;;;25.51;65.70
54736;BME280;40632;51.442;11.936;2022-07-22T05:22:57;100711.75;;;25.79;64.21
54736;BME280;40632;51.442;11.936;2022-07-22T05:25:23;100702.03;;;25.85;64.19
54736;BME280;40632;51.442;11.936;2022-07-22T05:27:53;100708.09;;;24.94;66.67
54736;BME280;40632;51.442;11.936;2022-07-22T05:30:20;100707.66;;;25.90;64.98
54736;BME280;40632;51.442;11.936;2022-07-22T05:32:46;100695.09;;;26.39;62.23
54736;BME280;40632;51.442;11.936;2022-07-22T05:35:11;100698.69;;;26.11;63.39
54736;BME280;40632;51.442;11.936;2022-07-22T05:37:39;100705.53;;;26.14;63.17
54736;BME280;40632;51.442;11.936;2022-07-22T05:40:07;100706.56;;;26.06;63.87
54736;BME280;40632;51.442;11.936;2022-07-22T05:42:33;100706.50;;;25.00;66.95
54736;BME280;40632;51.442;11.936;2022-07-22T05:44:58;100711.44;;;25.96;64.32
54736;BME280;40632;51.442;11.936;2022-07-22T05:47:24;100716.16;;;25.16;66.92
54736;BME280;40632;51.442;11.936;2022-07-22T05:49:49;100725.91;;;25.17;67.00
54736;BME280;40632;51.442;11.936;2022-07-22T05:52:15;100712.50;;;25.45;66.50
54736;BME280;40632;51.442;11.936;2022-07-22T05:54:43;100712.19;;;25.83;65.15
54736;BME280;40632;51.442;11.936;2022-07-22T05:57:09;100714.81;;;26.04;64.63
54736;BME280;40632;51.442;11.936;2022-07-22T05:59:34;100711.06;;;25.71;65.54
54736;BME280;40632;51.442;11.936;2022-07-22T06:02:00;100709.88;;;25.80;65.46
54736;BME280;40632;51.442;11.936;2022-07-22T06:04:26;100711.84;;;26.34;62.83
54736;BME280;40632;51.442;11.936;2022-07-22T06:06:51;100720.97;;;25.70;64.99
54736;BME280;40632;51.442;11.936;2022-07-22T06:09:17;100717.94;;;25.80;64.24
54736;BME280;40632;51.442;11.936;2022-07-22T06:11:45;100716.44;;;25.71;65.73
54736;BME280;40632;51.442;11.936;2022-07-22T06:14:11;100712.66;;;26.28;63.71
54736;BME280;40632;51.442;11.936;2022-07-22T06:16:36;100711.41;;;26.72;62.36
54736;BME280;40632;51.442;11.936;2022-07-22T06:19:02;100718.13;;;26.55;62.03
54736;BME280;40632;51.442;11.936;2022-07-22T06:21:28;100717.53;;;26.53;62.51
54736;BME280;40632;51.442;11.936;2022-07-22T06:23:54;100718.81;;;26.22;62.62
54736;BME280;40632;51.442;11.936;2022-07-22T06:26:19;100718.69;;;26.37;62.83
54736;BME280;40632;51.442;11.936;2022-07-22T06:28:48;100729.44;;;26.30;61.98
54736;BME280;40632;51.442;11.936;2022-07-22T06:31:13;100723.41;;;25.93;63.23
54736;BME280;40632;51.442;11.936;2022-07-22T06:33:39;100712.66;;;26.76;61.93
54736;BME280;40632;51.442;11.936;2022-07-22T06:36:05;100715.94;;;26.72;61.52
54736;BME280;40632;51.442;11.936;2022-07-22T06:38:31;100721.22;;;26.52;62.45
54736;BME280;40632;51.442;11.936;2022-07-22T06:40:57;100717.88;;;26.43;62.30
54736;BME280;40632;51.442;11.936;2022-07-22T06:43:23;100717.84;;;25.95;64.06
54736;BME280;40632;51.442;11.936;2022-07-22T06:45:51;100717.81;;;26.23;62.17
54736;BME280;40632;51.442;11.936;2022-07-22T06:48:17;100719.53;;;26.37;62.42
54736;BME280;40632;51.442;11.936;2022-07-22T06:50:42;100710.34;;;25.90;62.98
54736;BME280;40632;51.442;11.936;2022-07-22T06:53:08;100713.34;;;26.43;61.68
54736;BME280;40632;51.442;11.936;2022-07-22T06:55:33;100713.34;;;26.50;61.53
54736;BME280;40632;51.442;11.936;2022-07-22T06:57:59;100711.41;;;26.24;62.66
54736;BME280;40632;51.442;11.936;2022-07-22T07:00:25;100709.16;;;27.09;59.56
54736;BME280;40632;51.442;11.936;2022-07-22T07:02:53;100706.97;;;26.58;60.81
54736;BME280;40632;51.442;11.936;2022-07-22T07:05:18;100710.13;;;26.68;60.53
54736;BME280;40632;51.442;11.936;2022-07-22T07:07:44;100708.63;;;26.11;61.78
54736;BME280;40632;51.442;11.936;2022-07-22T07:10:10;100712.03;;;26.88;59.28
54736;BME280;40632;51.442;11.936;2022-07-22T07:12:35;100707.56;;;26.05;61.01
54736;BME280;40632;51.442;11.936;2022-07-22T07:15:01;100708.16;;;26.42;59.78
54736;BME280;40632;51.442;11.936;2022-07-22T07:17:27;100714.19;;;26.09;61.24
54736;BME280;40632;51.442;11.936;2022-07-22T07:19:55;100717.00;;;26.29;60.75
54736;BME280;40632;51.442;11.936;2022-07-22T07:22:20;100709.44;;;27.28;58.25
54736;BME280;40632;51.442;11.936;2022-07-22T07:24:46;100707.78;;;27.40;57.44
54736;BME280;40632;51.442;11.936;2022-07-22T07:27:12;100714.16;;;27.12;58.64
54736;BME280;40632;51.442;11.936;2022-07-22T07:29:37;100710.00;;;27.70;57.24
54736;BME280;40632;51.442;11.936;2022-07-22T07:32:04;100715.81;;;26.38;60.03
54736;BME280;40632;51.442;11.936;2022-07-22T07:34:29;100709.25;;;26.06;60.89
54736;BME280;40632;51.442;11.936;2022-07-22T07:36:58;100708.06;;;26.63;59.43
54736;BME280;40632;51.442;11.936;2022-07-22T07:39:23;100711.25;;;27.07;57.87
54736;BME280;40632;51.442;11.936;2022-07-22T07:41:49;100709.00;;;27.51;56.92
54736;BME280;40632;51.442;11.936;2022-07-22T07:44:15;100703.13;;;28.52;54.87
54736;BME280;40632;51.442;11.936;2022-07-22T07:46:40;100703.13;;;28.59;53.95
54736;BME280;40632;51.442;11.936;2022-07-22T07:49:06;100707.50;;;27.22;57.29
54736;BME280;40632;51.442;11.936;2022-07-22T07:51:31;100705.47;;;27.30;56.93
54736;BME280;40632;51.442;11.936;2022-07-22T07:54:00;100710.19;;;26.88;58.85
54736;BME280;40632;51.442;11.936;2022-07-22T07:56:25;100713.84;;;26.74;59.60
54736;BME280;40632;51.442;11.936;2022-07-22T07:58:51;100711.03;;;26.95;58.72
54736;BME280;40632;51.442;11.936;2022-07-22T08:01:17;100711.84;;;27.09;58.16
54736;BME280;40632;51.442;11.936;2022-07-22T08:03:42;100708.47;;;26.74;58.56
54736;BME280;40632;51.442;11.936;2022-07-22T08:06:08;100709.81;;;27.65;56.13
54736;BME280;40632;51.442;11.936;2022-07-22T08:08:33;100711.19;;;26.80;58.00
54736;BME280;40632;51.442;11.936;2022-07-22T08:11:02;100713.88;;;26.25;59.17
54736;BME280;40632;51.442;11.936;2022-07-22T08:13:28;100714.19;;;26.51;60.00
54736;BME280;40632;51.442;11.936;2022-07-22T08:15:54;100705.94;;;26.59;58.85
54736;BME280;40632;51.442;11.936;2022-07-22T08:18:19;100716.69;;;27.34;56.51
54736;BME280;40632;51.442;11.936;2022-07-22T08:20:45;100706.03;;;27.86;55.04
54736;BME280;40632;51.442;11.936;2022-07-22T08:23:11;100712.50;;;27.18;56.58
54736;BME280;40632;51.442;11.936;2022-07-22T08:25:36;100717.94;;;26.56;58.37
54736;BME280;40632;51.442;11.936;2022-07-22T08:28:05;100708.81;;;26.51;57.84
54736;BME280;40632;51.442;11.936;2022-07-22T08:30:30;100710.41;;;26.87;57.47
54736;BME280;40632;51.442;11.936;2022-07-22T08:32:56;100708.56;;;27.61;55.35
54736;BME280;40632;51.442;11.936;2022-07-22T08:35:22;100711.47;;;27.59;55.67
54736;BME280;40632;51.442;11.936;2022-07-22T08:37:48;100705.63;;;28.02;54.84
54736;BME280;40632;51.442;11.936;2022-07-22T08:40:15;100705.22;;;27.79;55.12
54736;BME280;40632;51.442;11.936;2022-07-22T08:42:42;100714.56;;;26.96;57.79
54736;BME280;40632;51.442;11.936;2022-07-22T08:45:11;100724.44;;;26.27;59.63
54736;BME280;40632;51.442;11.936;2022-07-22T08:47:38;100713.25;;;26.23;58.53
54736;BME280;40632;51.442;11.936;2022-07-22T08:50:04;100716.00;;;26.37;58.87
54736;BME280;40632;51.442;11.936;2022-07-22T08:52:30;100714.47;;;26.21;59.71
54736;BME280;40632;51.442;11.936;2022-07-22T08:54:56;100713.06;;;26.80;58.33
54736;BME280;40632;51.442;11.936;2022-07-22T08:57:22;100708.81;;;26.51;58.71
54736;BME280;40632;51.442;11.936;2022-07-22T08:59:52;100712.59;;;26.63;58.31
54736;BME280;40632;51.442;11.936;2022-07-22T09:02:22;100706.44;;;26.89;57.65
54736;BME280;40632;51.442;11.936;2022-07-22T09:04:54;100706.69;;;27.61;56.10
54736;BME280;40632;51.442;11.936;2022-07-22T09:07:24;100707.47;;;28.08;55.09
54736;BME280;40632;51.442;11.936;2022-07-22T09:09:50;100708.50;;;28.14;54.69
54736;BME280;40632;51.442;11.936;2022-07-22T09:12:15;100706.88;;;28.90;52.91
54736;BME280;40632;51.442;11.936;2022-07-22T09:14:44;100712.69;;;28.62;53.95
54736;BME280;40632;51.442;11.936;2022-07-22T09:17:25;100715.59;;;27.88;54.95
54736;BME280;40632;51.442;11.936;2022-07-22T09:19:51;100727.25;;;27.62;55.76
54736;BME280;40632;51.442;11.936;2022-07-22T09:22:30;100724.13;;;27.12;57.26
54736;BME280;40632;51.442;11.936;2022-07-22T09:24:56;100717.50;;;27.41;56.78
54736;BME280;40632;51.442;11.936;2022-07-22T09:27:22;100732.72;;;26.74;63.17
54736;BME280;40632;51.442;11.936;2022-07-22T09:29:49;100728.28;;;26.04;65.98
54736;BME280;40632;51.442;11.936;2022-07-22T09:32:14;100725.16;;;26.08;66.59
54736;BME280;40632;51.442;11.936;2022-07-22T09:34:43;100737.66;;;25.87;66.69
54736;BME280;40632;51.442;11.936;2022-07-22T09:37:08;100744.53;;;25.40;68.83
54736;BME280;40632;51.442;11.936;2022-07-22T09:39:34;100738.06;;;26.19;66.60
54736;BME280;40632;51.442;11.936;2022-07-22T09:42:00;100741.59;;;25.35;69.59
54736;BME280;40632;51.442;11.936;2022-07-22T09:44:26;100745.03;;;25.28;70.56
54736;BME280;40632;51.442;11.936;2022-07-22T09:46:52;100735.94;;;26.08;66.45
54736;BME280;40632;51.442;11.936;2022-07-22T09:49:30;100743.13;;;26.35;64.94
54736;BME280;40632;51.442;11.936;2022-07-22T09:51:59;100758.03;;;26.31;65.13
54736;BME280;40632;51.442;11.936;2022-07-22T09:54:26;100741.69;;;26.39;64.47
54736;BME280;40632;51.442;11.936;2022-07-22T09:56:53;100733.81;;;26.38;64.54
54736;BME280;40632;51.442;11.936;2022-07-22T09:59:19;100737.06;;;26.27;66.71
54736;BME280;40632;51.442;11.936;2022-07-22T10:01:45;100745.31;;;26.18;67.35
54736;BME280;40632;51.442;11.936;2022-07-22T10:04:12;100734.84;;;26.37;66.61
54736;BME280;40632;51.442;11.936;2022-07-22T10:06:41;100729.09;;;27.22;63.88
54736;BME280;40632;51.442;11.936;2022-07-22T10:09:11;100733.38;;;26.82;64.45
54736;BME280;40632;51.442;11.936;2022-07-22T10:11:37;100730.81;;;26.19;64.55
54736;BME280;40632;51.442;11.936;2022-07-22T10:14:03;100743.91;;;26.22;63.58
54736;BME280;40632;51.442;11.936;2022-07-22T10:16:28;100722.91;;;27.34;62.64
54736;BME280;40632;51.442;11.936;2022-07-22T10:18:54;100725.56;;;27.21;60.66
54736;BME280;40632;51.442;11.936;2022-07-22T10:21:30;100720.78;;;27.10;62.27
54736;BME280;40632;51.442;11.936;2022-07-22T10:24:13;100738.03;;;26.60;62.88
54736;BME280;40632;51.442;11.936;2022-07-22T10:26:57;100714.94;;;26.79;62.43
54736;BME280;40632;51.442;11.936;2022-07-22T10:29:25;100719.38;;;27.34;61.37
54736;BME280;40632;51.442;11.936;2022-07-22T10:32:21;100725.97;;;27.11;60.65
54736;BME280;40632;51.442;11.936;2022-07-22T10:35:20;100720.56;;;27.05;60.99
54736;BME280;40632;51.442;11.936;2022-07-22T10:37:48;100718.97;;;27.30;60.70
54736;BME280;40632;51.442;11.936;2022-07-22T10:40:18;100708.53;;;27.87;57.88
54736;BME280;40632;51.442;11.936;2022-07-22T10:43:05;100711.50;;;27.46;58.83
54736;BME280;40632;51.442;11.936;2022-07-22T10:45:35;100722.84;;;27.88;57.39
54736;BME280;40632;51.442;11.936;2022-07-22T10:48:02;100715.66;;;27.62;57.67
54736;BME280;40632;51.442;11.936;2022-07-22T10:51:05;100705.03;;;27.67;57.72
54736;BME280;40632;51.442;11.936;2022-07-22T10:53:45;100711.91;;;27.43;58.56
54736;BME280;40632;51.442;11.936;2022-07-22T10:56:19;100714.16;;;27.12;58.64
54736;BME280;40632;51.442;11.936;2022-07-22T10:58:50;100708.13;;;27.84;57.96
54736;BME280;40632;51.442;11.936;2022-07-22T11:01:18;100703.13;;;28.01;56.26
54736;BME280;40632;51.442;11.936;2022-07-22T11:03:44;100698.78;;;28.58;55.01
54736;BME280;40632;51.442;11.936;2022-07-22T11:06:16;100700.28;;;27.55;57.17
54736;BME280;40632;51.442;11.936;2022-07-22T11:08:45;100697.47;;;28.67;54.53
54736;BME280;40632;51.442;11.936;2022-07-22T11:11:11;100697.69;;;28.14;56.93
54736;BME280;40632;51.442;11.936;2022-07-22T11:13:40;100693.91;;;28.28;57.10
54736;BME280;40632;51.442;11.936;2022-07-22T11:16:20;100698.50;;;28.66;54.95
54736;BME280;40632;51.442;11.936;2022-07-22T11:18:48;100695.28;;;28.83;54.04
54736;BME280;40632;51.442;11.936;2022-07-22T11:21:16;100693.97;;;29.93;51.59
54736;BME280;40632;51.442;11.936;2022-07-22T11:23:42;100684.03;;;31.38;47.83
54736;BME280;40632;51.442;11.936;2022-07-22T11:26:09;100688.72;;;32.14;46.67
54736;BME280;40632;51.442;11.936;2022-07-22T11:28:41;100683.19;;;31.97;47.06
54736;BME280;40632;51.442;11.936;2022-07-22T11:31:08;100685.81;;;31.32;47.76
54736;BME280;40632;51.442;11.936;2022-07-22T11:33:34;100689.09;;;31.11;47.96
54736;BME280;40632;51.442;11.936;2022-07-22T11:36:01;100689.22;;;30.74;48.66
54736;BME280;40632;51.442;11.936;2022-07-22T11:38:39;100693.50;;;31.35;47.31
54736;BME280;40632;51.442;11.936;2022-07-22T11:41:05;100685.44;;;31.88;46.86
54736;BME280;40632;51.442;11.936;2022-07-22T11:43:37;100682.63;;;31.47;47.47
54736;BME280;40632;51.442;11.936;2022-07-22T11:46:05;100682.78;;;31.52;47.47
54736;BME280;40632;51.442;11.936;2022-07-22T11:48:31;100682.97;;;31.98;46.31
54736;BME280;40632;51.442;11.936;2022-07-22T11:50:59;100674.75;;;32.51;45.57
54736;BME280;40632;51.442;11.936;2022-07-22T11:53:24;100678.25;;;32.34;44.99
54736;BME280;40632;51.442;11.936;2022-07-22T11:55:50;100681.00;;;32.22;45.22
54736;BME280;40632;51.442;11.936;2022-07-22T11:58:16;100683.63;;;30.99;47.92
54736;BME280;40632;51.442;11.936;2022-07-22T12:00:42;100681.78;;;31.11;47.07
54736;BME280;40632;51.442;11.936;2022-07-22T12:03:10;100674.13;;;31.91;46.34
54736;BME280;40632;51.442;11.936;2022-07-22T12:05:36;100670.22;;;31.87;46.34
54736;BME280;40632;51.442;11.936;2022-07-22T12:08:02;100659.03;;;32.98;44.64
54736;BME280;40632;51.442;11.936;2022-07-22T12:10:28;100659.16;;;32.46;45.04
54736;BME280;40632;51.442;11.936;2022-07-22T12:12:54;100662.47;;;33.11;43.60
54736;BME280;40632;51.442;11.936;2022-07-22T12:15:20;100656.75;;;33.24;43.62
54736;BME280;40632;51.442;11.936;2022-07-22T12:17:46;100652.22;;;33.69;42.96
54736;BME280;40632;51.442;11.936;2022-07-22T12:20:15;100656.78;;;33.85;42.74
54736;BME280;40632;51.442;11.936;2022-07-22T12:22:45;100660.34;;;32.50;44.26
54736;BME280;40632;51.442;11.936;2022-07-22T12:25:10;100649.72;;;32.48;44.42
54736;BME280;40632;51.442;11.936;2022-07-22T12:27:36;100651.75;;;32.01;46.37
54736;BME280;40632;51.442;11.936;2022-07-22T12:30:11;100647.59;;;31.22;46.67
54736;BME280;40632;51.442;11.936;2022-07-22T12:32:46;100646.97;;;31.08;46.97
54736;BME280;40632;51.442;11.936;2022-07-22T12:35:14;100638.41;;;30.69;47.76
54736;BME280;40632;51.442;11.936;2022-07-22T12:37:42;100646.78;;;30.68;47.92
54736;BME280;40632;51.442;11.936;2022-07-22T12:40:10;100639.53;;;30.50;48.07
54736;BME280;40632;51.442;11.936;2022-07-22T12:42:38;100643.09;;;31.04;47.00